createdAt,value
2022-10-08T00:00:59.670Z,13.20
2022-10-08T00:03:30.791Z,12.35
2022-10-08T00:06:03.516Z,15.20
2022-10-08T00:08:31.875Z,10.68
2022-10-08T00:13:40.706Z,9.98
2022-10-08T00:16:13.509Z,17.40
2022-10-08T00:18:41.441Z,12.40
2022-10-08T00:21:16.578Z,11.90
2022-10-08T00:23:47.101Z,11.52
2022-10-08T00:26:14.322Z,11.75
2022-10-08T00:28:45.006Z,10.23
2022-10-08T00:31:18.064Z,10.00
2022-10-08T00:33:44.865Z,11.77
2022-10-08T00:36:12.593Z,11.98
2022-10-08T00:38:39.315Z,10.45
2022-10-08T00:41:07.113Z,12.13
2022-10-08T00:43:42.727Z,12.75
2022-10-08T00:46:35.035Z,14.90
2022-10-08T00:49:13.769Z,13.02
2022-10-08T00:51:52.066Z,13.93
2022-10-08T00:54:19.977Z,14.77
2022-10-08T00:56:52.781Z,10.98
2022-10-08T00:59:20.329Z,11.73
2022-10-08T01:01:47.176Z,13.20
2022-10-08T01:04:15.502Z,14.55
2022-10-08T01:09:51.847Z,9.68
2022-10-08T01:12:30.504Z,11.55
2022-10-08T01:15:23.471Z,12.45
2022-10-08T01:18:00.489Z,13.73
2022-10-08T01:20:33.033Z,12.90
2022-10-08T01:23:37.220Z,13.63
2022-10-08T01:26:10.168Z,12.77
2022-10-08T01:28:39.023Z,11.00
2022-10-08T01:31:09.557Z,12.88
2022-10-08T01:33:46.159Z,12.82
2022-10-08T01:36:14.416Z,13.95
2022-10-08T01:38:43.332Z,11.38
2022-10-08T01:41:11.433Z,13.60
2022-10-08T01:43:41.879Z,14.75
2022-10-08T01:46:15.354Z,13.73
2022-10-08T01:48:42.393Z,15.52
2022-10-08T01:51:18.469Z,13.23
2022-10-08T01:53:46.434Z,12.40
2022-10-08T01:56:16.342Z,12.93
2022-10-08T01:58:55.042Z,11.90
2022-10-08T02:01:35.429Z,12.23
2022-10-08T02:04:20.501Z,10.60
2022-10-08T02:06:51.274Z,11.60
2022-10-08T02:09:18.218Z,13.25
2022-10-08T02:11:44.797Z,11.20
2022-10-08T02:14:11.761Z,14.63
2022-10-08T02:16:43.854Z,10.95
2022-10-08T02:19:14.051Z,12.20
2022-10-08T02:21:41.098Z,12.63
2022-10-08T02:24:23.286Z,12.15
2022-10-08T02:26:51.398Z,11.65
2022-10-08T02:29:50.991Z,14.70
2022-10-08T02:32:59.144Z,10.38
2022-10-08T02:35:33.154Z,12.10
2022-10-08T02:38:10.505Z,11.85
2022-10-08T02:40:40.132Z,11.23
2022-10-08T02:43:11.102Z,14.75
2022-10-08T02:46:18.156Z,12.88
2022-10-08T02:48:54.590Z,10.75
2022-10-08T02:51:21.140Z,11.50
2022-10-08T02:53:49.362Z,12.60
2022-10-08T02:56:22.134Z,12.52
2022-10-08T02:58:48.754Z,13.18
2022-10-08T03:01:26.593Z,12.98
2022-10-08T03:04:17.386Z,14.38
2022-10-08T03:06:44.978Z,14.23
2022-10-08T03:09:13.234Z,15.65
2022-10-08T03:11:40.026Z,12.82
2022-10-08T03:14:09.274Z,13.13
2022-10-08T03:16:42.631Z,14.40
2022-10-08T03:19:10.718Z,12.43
2022-10-08T03:21:39.402Z,11.93
2022-10-08T03:24:10.478Z,15.95
2022-10-08T03:26:37.491Z,15.13
2022-10-08T03:29:04.773Z,12.82
2022-10-08T03:31:31.776Z,12.55
2022-10-08T03:33:58.312Z,15.80
2022-10-08T03:36:25.574Z,11.75
2022-10-08T03:38:52.520Z,11.02
2022-10-08T03:41:19.113Z,14.45
2022-10-08T03:43:45.931Z,12.85
2022-10-08T03:46:13.817Z,13.40
2022-10-08T03:48:40.889Z,13.00
2022-10-08T03:51:17.727Z,16.77
2022-10-08T03:53:44.458Z,14.38
2022-10-08T03:56:14.470Z,15.05
2022-10-08T03:58:41.263Z,13.32
2022-10-08T04:01:11.985Z,14.73
2022-10-08T04:03:38.627Z,14.95
2022-10-08T04:06:05.432Z,14.32
2022-10-08T04:08:33.162Z,13.05
2022-10-08T04:11:04.081Z,14.15
2022-10-08T04:13:30.571Z,12.10
2022-10-08T04:16:10.316Z,12.85
2022-10-08T04:18:37.083Z,17.65
2022-10-08T04:21:06.661Z,14.23
2022-10-08T04:23:35.516Z,16.70
2022-10-08T04:26:02.264Z,12.32
2022-10-08T04:28:30.883Z,14.68
2022-10-08T04:31:00.456Z,13.85
2022-10-08T04:33:28.257Z,15.43
2022-10-08T04:35:59.951Z,16.25
2022-10-08T04:38:27.573Z,14.30
2022-10-08T04:41:04.191Z,11.50
2022-10-08T04:43:30.944Z,15.13
2022-10-08T04:45:57.547Z,13.00
2022-10-08T04:48:24.271Z,14.48
2022-10-08T04:50:58.439Z,12.68
2022-10-08T04:53:27.757Z,12.85
2022-10-08T04:55:55.105Z,13.93
2022-10-08T04:58:22.791Z,14.15
2022-10-08T05:00:49.374Z,13.88
2022-10-08T05:03:15.941Z,14.02
2022-10-08T05:05:44.005Z,14.38
2022-10-08T05:08:10.947Z,13.27
2022-10-08T05:10:37.638Z,13.55
2022-10-08T05:13:04.299Z,16.48
2022-10-08T05:15:31.256Z,12.38
2022-10-08T05:17:57.822Z,14.65
2022-10-08T05:20:24.499Z,12.30
2022-10-08T05:22:51.126Z,15.18
2022-10-08T05:25:17.616Z,13.43
2022-10-08T05:27:44.113Z,12.77
2022-10-08T05:30:11.214Z,13.98
2022-10-08T05:32:37.756Z,13.65
2022-10-08T05:35:04.570Z,11.40
2022-10-08T05:37:31.189Z,14.25
2022-10-08T05:39:57.685Z,13.90
2022-10-08T05:42:24.400Z,12.18
2022-10-08T05:44:50.934Z,17.70
2022-10-08T05:47:17.426Z,17.50
2022-10-08T05:49:43.941Z,14.68
2022-10-08T05:52:10.542Z,13.65
2022-10-08T05:54:37.076Z,12.73
2022-10-08T05:57:03.980Z,15.73
2022-10-08T05:59:30.655Z,12.77
2022-10-08T06:01:57.174Z,13.38
2022-10-08T06:04:23.917Z,13.15
2022-10-08T06:06:50.531Z,13.23
2022-10-08T06:09:19.721Z,14.07
2022-10-08T06:11:46.830Z,16.25
2022-10-08T06:14:16.927Z,14.15
2022-10-08T06:16:43.811Z,12.98
2022-10-08T06:19:10.467Z,15.77
2022-10-08T06:21:37.589Z,14.55
2022-10-08T06:24:06.764Z,13.10
2022-10-08T06:26:36.524Z,13.63
2022-10-08T06:29:08.251Z,17.75
2022-10-08T06:31:35.321Z,14.68
2022-10-08T06:34:04.097Z,15.00
2022-10-08T06:36:31.130Z,15.80
2022-10-08T06:39:04.153Z,15.07
2022-10-08T06:41:30.701Z,16.52
2022-10-08T06:43:57.291Z,14.18
2022-10-08T06:46:24.086Z,16.45
2022-10-08T06:48:50.716Z,17.38
2022-10-08T06:51:18.740Z,13.65
2022-10-08T06:53:51.322Z,15.02
2022-10-08T06:56:20.776Z,16.55
2022-10-08T06:58:47.786Z,14.57
2022-10-08T07:01:20.108Z,14.55
2022-10-08T07:03:54.872Z,15.57
2022-10-08T07:06:21.827Z,15.85
2022-10-08T07:08:54.835Z,19.17
2022-10-08T07:11:22.254Z,17.67
2022-10-08T07:13:48.864Z,15.45
2022-10-08T07:16:21.448Z,16.88
2022-10-08T07:18:50.202Z,16.45
2022-10-08T07:21:18.295Z,14.63
2022-10-08T07:23:45.071Z,16.23
2022-10-08T07:26:15.273Z,15.85
2022-10-08T07:28:44.665Z,15.98
2022-10-08T07:31:14.887Z,16.15
2022-10-08T07:33:42.182Z,18.17
2022-10-08T07:36:11.197Z,16.02
2022-10-08T07:38:38.668Z,15.38
2022-10-08T07:41:06.110Z,15.90
2022-10-08T07:43:33.000Z,17.52
2022-10-08T07:45:59.689Z,15.43
2022-10-08T07:48:33.624Z,16.73
2022-10-08T07:51:11.860Z,16.67
2022-10-08T07:53:39.010Z,18.27
2022-10-08T07:56:06.750Z,12.88
2022-10-08T07:58:33.369Z,17.23
2022-10-08T08:01:02.984Z,18.13
2022-10-08T08:03:30.012Z,15.43
2022-10-08T08:06:12.141Z,16.95
2022-10-08T08:08:40.605Z,15.77
2022-10-08T08:13:37.520Z,13.70
2022-10-08T08:16:07.562Z,15.43
2022-10-08T08:18:37.136Z,14.82
2022-10-08T08:21:09.202Z,17.48
2022-10-08T08:23:40.905Z,15.70
2022-10-08T08:26:09.735Z,14.07
2022-10-08T08:28:36.503Z,16.25
2022-10-08T08:31:13.965Z,15.18
2022-10-08T08:33:41.004Z,14.25
2022-10-08T08:36:08.015Z,15.32
2022-10-08T08:38:35.584Z,12.50
2022-10-08T08:41:20.769Z,15.40
2022-10-08T08:43:48.091Z,14.27
2022-10-08T08:46:17.484Z,14.00
2022-10-08T08:48:45.706Z,13.32
2022-10-08T08:51:12.554Z,13.35
2022-10-08T08:53:39.113Z,11.30
2022-10-08T08:56:08.041Z,13.75
2022-10-08T08:58:42.868Z,18.63
2022-10-08T09:03:44.146Z,15.15
2022-10-08T09:08:42.313Z,13.10
2022-10-08T09:11:21.694Z,14.32
2022-10-08T09:14:05.982Z,12.77
2022-10-08T09:16:34.146Z,11.43
2022-10-08T09:19:00.738Z,14.75
2022-10-08T09:21:29.751Z,10.38
2022-10-08T09:23:56.489Z,8.90
2022-10-08T09:26:24.746Z,11.15
2022-10-08T09:28:52.520Z,9.77
2022-10-08T09:31:29.635Z,12.75
2022-10-08T09:34:11.297Z,11.77
2022-10-08T09:36:48.269Z,12.93
2022-10-08T09:39:26.396Z,12.70
2022-10-08T09:42:08.307Z,12.93
2022-10-08T09:44:48.512Z,13.35
2022-10-08T09:47:19.979Z,9.52
2022-10-08T09:49:51.423Z,12.65
2022-10-08T09:52:22.163Z,12.80
2022-10-08T09:54:52.315Z,11.70
2022-10-08T09:57:20.689Z,11.13
2022-10-08T10:02:32.862Z,12.70
2022-10-08T10:05:00.617Z,15.10
2022-10-08T10:07:41.978Z,12.18
2022-10-08T10:10:30.105Z,10.40
2022-10-08T10:13:20.470Z,13.15
2022-10-08T10:15:59.802Z,11.82
2022-10-08T10:18:32.644Z,9.80
2022-10-08T10:21:01.702Z,12.35
2022-10-08T10:23:49.015Z,11.57
2022-10-08T10:26:23.185Z,11.77
2022-10-08T10:28:58.797Z,11.52
2022-10-08T10:31:34.451Z,14.43
2022-10-08T10:34:14.218Z,10.85
2022-10-08T10:36:49.617Z,10.60
2022-10-08T10:39:39.397Z,12.05
2022-10-08T10:42:17.358Z,12.75
2022-10-08T10:44:49.456Z,9.43
2022-10-08T10:47:18.263Z,11.73
2022-10-08T10:49:44.863Z,14.25
2022-10-08T10:52:38.840Z,10.60
2022-10-08T10:55:18.092Z,11.02
2022-10-08T10:58:15.414Z,11.05
2022-10-08T11:00:57.052Z,11.45
2022-10-08T11:03:32.867Z,12.77
2022-10-08T11:06:30.964Z,10.38
2022-10-08T11:09:18.911Z,15.73
2022-10-08T11:11:48.770Z,14.23
2022-10-08T11:14:24.174Z,15.05
2022-10-08T11:17:01.399Z,13.60
2022-10-08T11:19:49.514Z,12.13
2022-10-08T11:22:27.946Z,11.88
2022-10-08T11:25:10.656Z,13.40
2022-10-08T11:27:45.788Z,12.32
2022-10-08T11:30:15.396Z,14.90
2022-10-08T11:32:45.158Z,11.68
2022-10-08T11:35:11.858Z,9.85
2022-10-08T11:38:10.002Z,13.80
2022-10-08T11:40:55.503Z,12.52
2022-10-08T11:43:33.196Z,13.20
2022-10-08T11:46:28.751Z,13.60
2022-10-08T11:49:00.528Z,17.77
2022-10-08T11:51:28.893Z,16.23
2022-10-08T11:54:31.445Z,14.45
2022-10-08T11:57:17.646Z,13.00
2022-10-08T11:59:46.583Z,14.48
2022-10-08T12:02:35.571Z,15.80
2022-10-08T12:05:23.969Z,16.88
2022-10-08T12:07:57.341Z,18.30
2022-10-08T12:10:34.955Z,16.58
2022-10-08T12:13:05.650Z,15.60
2022-10-08T12:15:34.120Z,15.73
2022-10-08T12:18:11.134Z,18.13
2022-10-08T12:20:39.498Z,16.55
2022-10-08T12:23:22.175Z,17.13
2022-10-08T12:26:00.733Z,17.45
2022-10-08T12:28:32.218Z,16.77
2022-10-08T12:31:01.612Z,21.33
2022-10-08T12:33:29.136Z,23.63
2022-10-08T12:36:10.897Z,17.52
2022-10-08T12:38:50.949Z,25.38
2022-10-08T12:42:14.917Z,20.17
2022-10-08T12:44:54.145Z,20.40
2022-10-08T12:47:41.793Z,18.25
2022-10-08T12:50:36.700Z,20.00
2022-10-08T12:53:04.638Z,19.73
2022-10-08T12:55:37.817Z,19.63
2022-10-08T12:58:04.823Z,21.35
2022-10-08T13:00:33.468Z,18.45
2022-10-08T13:03:13.006Z,16.77
2022-10-08T13:05:43.198Z,25.58
2022-10-08T13:08:29.944Z,20.08
2022-10-08T13:10:57.539Z,18.15
2022-10-08T13:13:39.323Z,18.15
2022-10-08T13:16:10.375Z,15.82
2022-10-08T13:18:38.626Z,16.92
2022-10-08T13:21:08.036Z,15.98
2022-10-08T13:23:40.670Z,15.82
2022-10-08T13:26:42.710Z,15.80
2022-10-08T13:29:21.436Z,12.70
2022-10-08T13:32:14.512Z,16.33
2022-10-08T13:34:41.229Z,15.57
2022-10-08T13:37:11.933Z,16.33
2022-10-08T13:39:41.868Z,17.60
2022-10-08T13:42:11.066Z,14.88
2022-10-08T13:44:39.561Z,16.48
2022-10-08T13:47:06.166Z,13.07
2022-10-08T13:49:33.181Z,17.02
2022-10-08T13:52:01.139Z,18.15
2022-10-08T13:54:30.703Z,17.35
2022-10-08T13:56:57.567Z,16.73
2022-10-08T13:59:29.559Z,15.52
2022-10-08T14:01:57.228Z,17.17
2022-10-08T14:04:23.852Z,18.02
2022-10-08T14:06:53.414Z,18.45
2022-10-08T14:09:23.462Z,17.17
2022-10-08T14:11:55.634Z,15.80
2022-10-08T14:14:26.326Z,18.88
2022-10-08T14:16:53.488Z,18.77
2022-10-08T14:19:21.230Z,19.67
2022-10-08T14:21:55.102Z,18.15
2022-10-08T14:24:21.658Z,17.00
2022-10-08T14:26:48.157Z,15.98
2022-10-08T14:29:14.812Z,14.43
2022-10-08T14:31:41.352Z,18.02
2022-10-08T14:34:07.874Z,20.40
2022-10-08T14:36:40.139Z,18.13
2022-10-08T14:39:06.751Z,16.25
2022-10-08T14:41:33.536Z,17.10
2022-10-08T14:44:00.169Z,15.55
2022-10-08T14:46:26.721Z,17.45
2022-10-08T14:48:53.505Z,15.30
2022-10-08T14:51:20.711Z,14.52
2022-10-08T14:53:47.206Z,17.17
2022-10-08T14:56:13.722Z,14.35
2022-10-08T14:58:40.304Z,17.92
2022-10-08T15:01:07.219Z,17.65
2022-10-08T15:03:33.947Z,20.63
2022-10-08T15:06:01.076Z,16.90
2022-10-08T15:08:28.387Z,16.65
2022-10-08T15:10:54.939Z,16.10
2022-10-08T15:13:21.569Z,15.98
2022-10-08T15:15:48.101Z,16.70
2022-10-08T15:18:14.706Z,16.67
2022-10-08T15:20:41.542Z,20.55
2022-10-08T15:23:10.183Z,15.43
2022-10-08T15:25:37.019Z,18.67
2022-10-08T15:28:03.778Z,18.20
2022-10-08T15:30:30.369Z,18.13
2022-10-08T15:33:02.379Z,17.98
2022-10-08T15:35:28.939Z,17.90
2022-10-08T15:37:55.475Z,14.50
2022-10-08T15:40:22.039Z,17.45
2022-10-08T15:42:51.035Z,18.35
2022-10-08T15:45:17.541Z,18.42
2022-10-08T15:47:44.026Z,20.52
2022-10-08T15:50:10.551Z,14.10
2022-10-08T15:52:37.114Z,19.77
2022-10-08T15:55:03.830Z,16.77
2022-10-08T15:57:30.369Z,17.83
2022-10-08T15:59:58.267Z,17.98
2022-10-08T16:02:25.024Z,17.08
2022-10-08T16:04:53.216Z,18.63
2022-10-08T16:07:19.964Z,15.38
2022-10-08T16:09:46.507Z,15.73
2022-10-08T16:12:13.234Z,18.05
2022-10-08T16:14:39.797Z,19.58
2022-10-08T16:17:06.473Z,21.83
2022-10-08T16:19:33.022Z,14.77
2022-10-08T16:22:01.046Z,15.93
2022-10-08T16:24:27.714Z,15.57
2022-10-08T16:26:54.258Z,18.63
2022-10-08T16:29:20.914Z,19.02
2022-10-08T16:31:47.577Z,15.27
2022-10-08T16:34:17.116Z,17.52
2022-10-08T16:36:44.106Z,22.08
2022-10-08T16:39:12.489Z,19.40
2022-10-08T16:41:39.179Z,19.65
2022-10-08T16:44:12.952Z,19.95
2022-10-08T16:46:41.849Z,18.23
2022-10-08T16:49:30.510Z,19.73
2022-10-08T16:51:59.450Z,16.77
2022-10-08T16:54:27.006Z,19.15
2022-10-08T16:56:54.028Z,19.95
2022-10-08T16:59:23.302Z,20.35
2022-10-08T17:01:52.693Z,22.30
2022-10-08T17:04:20.653Z,21.08
2022-10-08T17:06:47.649Z,20.63
2022-10-08T17:09:14.409Z,20.73
2022-10-08T17:11:41.873Z,19.92
2022-10-08T17:14:10.105Z,20.88
2022-10-08T17:16:36.980Z,22.48
2022-10-08T17:19:04.323Z,22.25
2022-10-08T17:21:32.043Z,19.05
2022-10-08T17:23:58.867Z,23.20
2022-10-08T17:26:27.521Z,22.80
2022-10-08T17:28:54.467Z,17.65
2022-10-08T17:31:26.115Z,22.50
2022-10-08T17:33:53.202Z,24.85
2022-10-08T17:36:22.390Z,25.15
2022-10-08T17:38:51.162Z,21.48
2022-10-08T17:41:20.372Z,20.48
2022-10-08T17:43:50.815Z,20.25
2022-10-08T17:46:18.882Z,24.05
2022-10-08T17:48:46.530Z,23.88
2022-10-08T17:51:15.350Z,29.00
2022-10-08T17:53:42.867Z,20.13
2022-10-08T17:56:12.220Z,23.42
2022-10-08T17:58:39.130Z,23.60
2022-10-08T18:01:08.915Z,23.95
2022-10-08T18:03:36.394Z,26.60
2022-10-08T18:06:03.525Z,29.55
2022-10-08T18:08:30.074Z,23.85
2022-10-08T18:10:56.739Z,26.60
2022-10-08T18:13:23.333Z,29.80
2022-10-08T18:15:49.882Z,30.52
2022-10-08T18:18:17.713Z,29.35
2022-10-08T18:20:57.846Z,36.63
2022-10-08T18:23:24.803Z,31.02
2022-10-08T18:25:53.893Z,26.63
2022-10-08T18:28:21.939Z,30.05
2022-10-08T18:30:48.706Z,31.23
2022-10-08T18:33:15.327Z,33.25
2022-10-08T18:35:41.873Z,31.50
2022-10-08T18:38:08.395Z,32.88
2022-10-08T18:40:34.899Z,29.52
2022-10-08T18:43:01.398Z,33.47
2022-10-08T18:45:27.912Z,31.25
2022-10-08T18:47:54.422Z,38.13
2022-10-08T18:50:20.936Z,37.40
2022-10-08T18:52:47.715Z,31.67
2022-10-08T18:55:14.547Z,30.98
2022-10-08T18:57:41.094Z,36.03
2022-10-08T19:00:08.289Z,39.45
2022-10-08T19:02:34.972Z,35.70
2022-10-08T19:05:01.645Z,34.72
2022-10-08T19:07:28.144Z,36.45
2022-10-08T19:09:55.575Z,34.80
2022-10-08T19:12:22.226Z,39.95
2022-10-08T19:14:49.474Z,37.70
2022-10-08T19:17:15.981Z,36.13
2022-10-08T19:19:42.669Z,33.55
2022-10-08T19:22:09.245Z,36.45
2022-10-08T19:24:40.684Z,35.08
2022-10-08T19:27:07.626Z,36.55
2022-10-08T19:29:35.906Z,36.20
2022-10-08T19:34:29.062Z,32.55
2022-10-08T19:36:55.962Z,33.90
2022-10-08T19:39:27.938Z,37.97
2022-10-08T19:41:54.620Z,37.63
2022-10-08T19:44:21.208Z,33.42
2022-10-08T19:46:48.017Z,40.20
2022-10-08T19:49:15.326Z,37.88
2022-10-08T19:51:42.275Z,34.90
2022-10-08T19:54:08.820Z,37.38
2022-10-08T19:56:36.252Z,35.95
2022-10-08T19:59:02.906Z,32.70
2022-10-08T20:01:32.464Z,42.80
2022-10-08T20:04:00.427Z,43.25
2022-10-08T20:06:29.242Z,29.25
2022-10-08T20:08:58.151Z,17.80
2022-10-08T20:11:25.627Z,17.75
2022-10-08T20:13:53.132Z,22.10
2022-10-08T20:16:30.876Z,23.85
2022-10-08T20:19:03.249Z,15.32
2022-10-08T20:21:31.799Z,20.60
2022-10-08T20:23:58.613Z,25.75
2022-10-08T20:26:30.517Z,25.17
2022-10-08T20:28:59.505Z,25.75
2022-10-08T20:31:32.017Z,27.90
2022-10-08T20:34:30.923Z,24.45
2022-10-08T20:37:02.358Z,35.05
2022-10-08T20:39:29.149Z,34.47
2022-10-08T20:41:56.150Z,30.75
2022-10-08T20:44:22.689Z,36.85
2022-10-08T20:46:50.382Z,36.25
2022-10-08T20:49:17.357Z,39.15
2022-10-08T20:51:44.234Z,34.15
2022-10-08T20:54:13.312Z,32.95
2022-10-08T20:56:41.350Z,34.25
2022-10-08T20:59:09.483Z,33.63
2022-10-08T21:01:38.143Z,37.80
2022-10-08T21:04:05.762Z,33.00
2022-10-08T21:06:40.540Z,38.88
2022-10-08T21:09:07.759Z,34.78
2022-10-08T21:11:34.921Z,33.45
2022-10-08T21:14:03.386Z,35.63
2022-10-08T21:16:32.527Z,39.60
2022-10-08T21:19:04.217Z,39.55
2022-10-08T21:21:31.607Z,33.80
2022-10-08T21:23:58.922Z,36.28
2022-10-08T21:26:28.055Z,31.92
2022-10-08T21:28:58.776Z,33.30
2022-10-08T21:31:26.842Z,29.52
2022-10-08T21:33:54.162Z,28.08
2022-10-08T21:36:23.088Z,27.05
2022-10-08T21:38:49.627Z,30.27
2022-10-08T21:41:17.920Z,25.45
2022-10-08T21:43:47.257Z,29.08
2022-10-08T21:46:17.357Z,25.77
2022-10-08T21:48:44.072Z,23.65
2022-10-08T21:51:16.663Z,23.23
2022-10-08T21:53:48.194Z,23.95
2022-10-08T21:56:17.096Z,25.63
2022-10-08T21:58:46.209Z,24.02
2022-10-08T22:01:29.021Z,25.08
2022-10-08T22:04:01.718Z,23.05
2022-10-08T22:06:30.584Z,20.35
2022-10-08T22:08:57.511Z,26.20
2022-10-08T22:11:24.665Z,24.75
2022-10-08T22:13:51.658Z,21.20
2022-10-08T22:16:19.726Z,24.10
2022-10-08T22:18:46.480Z,21.85
2022-10-08T22:21:15.938Z,18.55
2022-10-08T22:23:42.574Z,24.27
2022-10-08T22:26:15.506Z,19.80
2022-10-08T22:28:42.536Z,21.52
2022-10-08T22:31:10.885Z,19.58
2022-10-08T22:36:09.076Z,21.52
2022-10-08T22:38:37.457Z,16.98
2022-10-08T22:43:31.676Z,17.90
2022-10-08T22:46:05.609Z,18.00
2022-10-08T22:48:32.328Z,18.02
2022-10-08T22:51:11.906Z,21.98
2022-10-08T22:53:38.724Z,19.73
2022-10-08T22:56:07.429Z,19.83
2022-10-08T22:58:34.506Z,19.55
2022-10-08T23:01:09.013Z,17.05
2022-10-08T23:03:36.596Z,18.83
2022-10-08T23:06:14.206Z,17.60
2022-10-08T23:08:41.255Z,15.45
2022-10-08T23:11:08.193Z,16.98
2022-10-08T23:13:34.915Z,14.15
2022-10-08T23:16:10.043Z,14.25
2022-10-08T23:18:38.726Z,13.43
2022-10-08T23:21:15.466Z,13.43
2022-10-08T23:23:43.238Z,13.07
2022-10-08T23:26:10.009Z,11.68
2022-10-08T23:28:37.834Z,14.07
2022-10-08T23:31:10.339Z,12.75
2022-10-08T23:33:38.494Z,10.05
2022-10-08T23:36:06.538Z,10.80
2022-10-08T23:38:34.676Z,9.07
2022-10-08T23:41:02.766Z,12.30
2022-10-08T23:43:29.859Z,10.02
2022-10-08T23:45:56.562Z,9.57
2022-10-08T23:48:23.213Z,9.52
2022-10-08T23:50:51.548Z,9.30
2022-10-08T23:55:45.274Z,7.28
2022-10-08T23:58:12.040Z,13.98
